sensor_id;sensor_type;location;lat;lon;timestamp;pressure;altitude;pressure_sealevel;temperature;humidity
75418;BME280;63997;52.112;5.420;2024-02-23T00:00:44;98681.88;;;4.58;100.00
75418;BME280;63997;52.112;5.420;2024-02-23T00:03:10;98695.47;;;4.60;100.00
75418;BME280;63997;52.112;5.420;2024-02-23T00:05:37;98697.44;;;4.63;100.00
75418;BME280;63997;52.112;5.420;2024-02-23T00:08:04;98700.50;;;4.65;100.00
75418;BME280;63997;52.112;5.420;2024-02-23T00:10:30;98692.38;;;4.70;100.00
75418;BME280;63997;52.112;5.420;2024-02-23T00:12:57;98703.13;;;4.77;100.00
75418;BME280;63997;52.112;5.420;2024-02-23T00:15:25;98708.81;;;4.80;100.00
75418;BME280;63997;52.112;5.420;2024-02-23T00:17:51;98703.66;;;4.83;100.00
75418;BME280;63997;52.112;5.420;2024-02-23T00:20:18;98709.69;;;4.84;100.00
75418;BME280;63997;52.112;5.420;2024-02-23T00:22:45;98710.81;;;4.83;100.00
75418;BME280;63997;52.112;5.420;2024-02-23T00:25:11;98706.28;;;4.83;100.00
75418;BME280;63997;52.112;5.420;2024-02-23T00:27:38;98718.69;;;4.83;100.00
75418;BME280;63997;52.112;5.420;2024-02-23T00:30:06;98713.75;;;4.81;100.00
75418;BME280;63997;52.112;5.420;2024-02-23T00:32:33;98722.88;;;4.84;100.00
75418;BME280;63997;52.112;5.420;2024-02-23T00:35:00;98718.78;;;4.86;100.00
75418;BME280;63997;52.112;5.420;2024-02-23T00:37:26;98712.88;;;4.89;100.00
75418;BME280;63997;52.112;5.420;2024-02-23T00:39:53;98732.47;;;4.92;100.00
75418;BME280;63997;52.112;5.420;2024-02-23T00:42:20;98737.53;;;4.97;100.00
75418;BME280;63997;52.112;5.420;2024-02-23T00:44:53;98718.44;;;5.00;100.00
75418;BME280;63997;52.112;5.420;2024-02-23T00:47:20;98731.81;;;5.07;100.00
75418;BME280;63997;52.112;5.420;2024-02-23T00:49:46;98742.00;;;5.09;100.00
75418;BME280;63997;52.112;5.420;2024-02-23T00:52:14;98742.75;;;5.09;100.00
75418;BME280;63997;52.112;5.420;2024-02-23T00:54:41;98741.66;;;5.10;100.00
75418;BME280;63997;52.112;5.420;2024-02-23T00:57:07;98740.22;;;5.13;100.00
75418;BME280;63997;52.112;5.420;2024-02-23T00:59:34;98747.38;;;5.12;100.00
75418;BME280;63997;52.112;5.420;2024-02-23T01:02:01;98755.69;;;5.14;100.00
75418;BME280;63997;52.112;5.420;2024-02-23T01:04:27;98764.38;;;5.15;100.00
75418;BME280;63997;52.112;5.420;2024-02-23T01:06:54;98769.88;;;5.10;100.00
75418;BME280;63997;52.112;5.420;2024-02-23T01:09:20;98770.97;;;5.09;100.00
75418;BME280;63997;52.112;5.420;2024-02-23T01:11:47;98782.50;;;5.04;100.00
75418;BME280;63997;52.112;5.420;2024-02-23T01:14:14;98813.91;;;4.97;100.00
75418;BME280;63997;52.112;5.420;2024-02-23T01:16:42;98795.69;;;4.92;100.00
75418;BME280;63997;52.112;5.420;2024-02-23T01:19:09;98806.44;;;4.87;100.00
75418;BME280;63997;52.112;5.420;2024-02-23T01:21:36;98802.16;;;4.82;100.00
75418;BME280;63997;52.112;5.420;2024-02-23T01:24:03;98812.28;;;4.80;100.00
75418;BME280;63997;52.112;5.420;2024-02-23T01:26:34;98789.13;;;4.73;100.00
75418;BME280;63997;52.112;5.420;2024-02-23T01:29:02;98808.75;;;4.64;100.00
75418;BME280;63997;52.112;5.420;2024-02-23T01:31:29;98815.13;;;4.63;100.00
75418;BME280;63997;52.112;5.420;2024-02-23T01:33:56;98816.44;;;4.57;100.00
75418;BME280;63997;52.112;5.420;2024-02-23T01:36:25;98826.97;;;4.57;100.00
75418;BME280;63997;52.112;5.420;2024-02-23T01:38:52;98845.06;;;4.58;100.00
75418;BME280;63997;52.112;5.420;2024-02-23T01:41:18;98833.78;;;4.58;100.00
75418;BME280;63997;52.112;5.420;2024-02-23T01:43:45;98826.97;;;4.57;100.00
75418;BME280;63997;52.112;5.420;2024-02-23T01:46:12;98821.28;;;4.55;100.00
75418;BME280;63997;52.112;5.420;2024-02-23T01:48:42;98826.22;;;4.56;100.00
75418;BME280;63997;52.112;5.420;2024-02-23T01:51:09;98833.13;;;4.61;100.00
75418;BME280;63997;52.112;5.420;2024-02-23T01:53:36;98844.09;;;4.63;100.00
75418;BME280;63997;52.112;5.420;2024-02-23T01:56:03;98847.16;;;4.65;100.00
75418;BME280;63997;52.112;5.420;2024-02-23T01:58:30;98852.53;;;4.68;100.00
75418;BME280;63997;52.112;5.420;2024-02-23T02:00:57;98853.72;;;4.71;100.00
75418;BME280;63997;52.112;5.420;2024-02-23T02:03:25;98848.47;;;4.71;100.00
75418;BME280;63997;52.112;5.420;2024-02-23T02:05:53;98852.97;;;4.70;100.00
75418;BME280;63997;52.112;5.420;2024-02-23T02:08:21;98861.97;;;4.69;100.00
75418;BME280;63997;52.112;5.420;2024-02-23T02:10:48;98866.47;;;4.69;100.00
75418;BME280;63997;52.112;5.420;2024-02-23T02:13:16;98869.88;;;4.69;100.00
75418;BME280;63997;52.112;5.420;2024-02-23T02:15:43;98858.13;;;4.67;100.00
75418;BME280;63997;52.112;5.420;2024-02-23T02:18:10;98855.06;;;4.65;100.00
75418;BME280;63997;52.112;5.420;2024-02-23T02:20:40;98866.25;;;4.62;100.00
75418;BME280;63997;52.112;5.420;2024-02-23T02:23:16;98863.16;;;4.60;100.00
75418;BME280;63997;52.112;5.420;2024-02-23T02:25:43;98868.31;;;4.56;100.00
75418;BME280;63997;52.112;5.420;2024-02-23T02:28:09;98861.53;;;4.55;100.00
75418;BME280;63997;52.112;5.420;2024-02-23T02:30:37;98857.34;;;4.54;100.00
75418;BME280;63997;52.112;5.420;2024-02-23T02:33:06;98868.97;;;4.53;100.00
75418;BME280;63997;52.112;5.420;2024-02-23T02:35:35;98869.72;;;4.54;100.00
75418;BME280;63997;52.112;5.420;2024-02-23T02:38:02;98863.41;;;4.55;100.00
75418;BME280;63997;52.112;5.420;2024-02-23T02:40:28;98876.09;;;4.53;100.00
75418;BME280;63997;52.112;5.420;2024-02-23T02:42:55;98863.59;;;4.49;100.00
75418;BME280;63997;52.112;5.420;2024-02-23T02:45:23;98870.72;;;4.49;100.00
75418;BME280;63997;52.112;5.420;2024-02-23T02:47:50;98873.03;;;4.50;100.00
75418;BME280;63997;52.112;5.420;2024-02-23T02:50:16;98871.16;;;4.51;100.00
75418;BME280;63997;52.112;5.420;2024-02-23T02:52:43;98882.03;;;4.49;100.00
75418;BME280;63997;52.112;5.420;2024-02-23T02:55:10;98885.44;;;4.50;100.00
75418;BME280;63997;52.112;5.420;2024-02-23T02:57:36;98884.66;;;4.49;100.00
75418;BME280;63997;52.112;5.420;2024-02-23T03:00:04;98878.63;;;4.49;100.00
75418;BME280;63997;52.112;5.420;2024-02-23T03:02:35;98884.53;;;4.46;100.00
75418;BME280;63997;52.112;5.420;2024-02-23T03:05:02;98877.28;;;4.43;100.00
75418;BME280;63997;52.112;5.420;2024-02-23T03:07:28;98876.97;;;4.44;100.00
75418;BME280;63997;52.112;5.420;2024-02-23T03:09:55;98885.16;;;4.43;100.00
75418;BME280;63997;52.112;5.420;2024-02-23T03:12:22;98884.41;;;4.42;100.00
75418;BME280;63997;52.112;5.420;2024-02-23T03:14:48;98896.03;;;4.41;100.00
75418;BME280;63997;52.112;5.420;2024-02-23T03:17:16;98890.78;;;4.41;100.00
75418;BME280;63997;52.112;5.420;2024-02-23T03:19:42;98898.66;;;4.41;100.00
75418;BME280;63997;52.112;5.420;2024-02-23T03:22:09;98904.59;;;4.38;100.00
75418;BME280;63997;52.112;5.420;2024-02-23T03:24:36;98893.16;;;4.34;100.00
75418;BME280;63997;52.112;5.420;2024-02-23T03:27:03;98905.91;;;4.32;100.00
75418;BME280;63997;52.112;5.420;2024-02-23T03:29:30;98900.63;;;4.32;100.00
75418;BME280;63997;52.112;5.420;2024-02-23T03:31:57;98899.72;;;4.28;100.00
75418;BME280;63997;52.112;5.420;2024-02-23T03:34:24;98896.34;;;4.28;100.00
75418;BME280;63997;52.112;5.420;2024-02-23T03:36:51;98906.53;;;4.29;100.00
75418;BME280;63997;52.112;5.420;2024-02-23T03:39:18;98909.16;;;4.29;100.00
75418;BME280;63997;52.112;5.420;2024-02-23T03:41:44;98912.13;;;4.28;100.00
75418;BME280;63997;52.112;5.420;2024-02-23T03:44:11;98924.03;;;4.25;100.00
75418;BME280;63997;52.112;5.420;2024-02-23T03:46:38;98918.97;;;4.20;100.00
75418;BME280;63997;52.112;5.420;2024-02-23T03:49:04;98926.00;;;4.16;100.00
75418;BME280;63997;52.112;5.420;2024-02-23T03:51:31;98927.97;;;4.19;100.00
75418;BME280;63997;52.112;5.420;2024-02-23T03:53:59;98927.34;;;4.22;100.00
75418;BME280;63997;52.112;5.420;2024-02-23T03:56:25;98926.25;;;4.23;100.00
75418;BME280;63997;52.112;5.420;2024-02-23T03:58:52;98925.81;;;4.21;100.00
75418;BME280;63997;52.112;5.420;2024-02-23T04:01:19;98921.63;;;4.20;100.00
75418;BME280;63997;52.112;5.420;2024-02-23T04:03:45;98926.44;;;4.18;100.00
75418;BME280;63997;52.112;5.420;2024-02-23T04:06:12;98933.91;;;4.16;100.00
75418;BME280;63997;52.112;5.420;2024-02-23T04:08:39;98930.50;;;4.15;100.00
75418;BME280;63997;52.112;5.420;2024-02-23T04:11:07;98934.53;;;4.13;100.00
75418;BME280;63997;52.112;5.420;2024-02-23T04:13:33;98944.16;;;4.09;100.00
75418;BME280;63997;52.112;5.420;2024-02-23T04:16:01;98934.28;;;4.06;100.00
75418;BME280;63997;52.112;5.420;2024-02-23T04:18:33;98939.06;;;4.04;100.00
75418;BME280;63997;52.112;5.420;2024-02-23T04:20:59;98934.81;;;3.99;100.00
75418;BME280;63997;52.112;5.420;2024-02-23T04:23:26;98940.38;;;3.97;100.00
75418;BME280;63997;52.112;5.420;2024-02-23T04:25:52;98944.22;;;4.00;100.00
75418;BME280;63997;52.112;5.420;2024-02-23T04:28:19;98948.25;;;3.97;100.00
75418;BME280;63997;52.112;5.420;2024-02-23T04:30:45;98951.22;;;3.96;100.00
75418;BME280;63997;52.112;5.420;2024-02-23T04:33:12;98953.41;;;3.94;100.00
75418;BME280;63997;52.112;5.420;2024-02-23T04:35:39;98948.44;;;3.92;100.00
75418;BME280;63997;52.112;5.420;2024-02-23T04:38:05;98958.53;;;3.90;100.00
75418;BME280;63997;52.112;5.420;2024-02-23T04:40:32;98950.19;;;3.88;100.00
75418;BME280;63997;52.112;5.420;2024-02-23T04:42:58;98957.63;;;3.86;100.00
75418;BME280;63997;52.112;5.420;2024-02-23T04:45:25;98959.81;;;3.84;100.00
75418;BME280;63997;52.112;5.420;2024-02-23T04:47:51;98972.19;;;3.84;100.00
75418;BME280;63997;52.112;5.420;2024-02-23T04:50:18;98972.63;;;3.86;100.00
75418;BME280;63997;52.112;5.420;2024-02-23T04:52:45;98968.28;;;3.90;100.00
75418;BME280;63997;52.112;5.420;2024-02-23T04:55:12;98968.41;;;3.93;100.00
75418;BME280;63997;52.112;5.420;2024-02-23T04:57:39;98967.66;;;3.93;100.00
75418;BME280;63997;52.112;5.420;2024-02-23T05:00:06;98969.94;;;3.94;100.00
75418;BME280;63997;52.112;5.420;2024-02-23T05:02:34;98979.38;;;3.95;100.00
75418;BME280;63997;52.112;5.420;2024-02-23T05:05:03;98969.28;;;3.97;100.00
75418;BME280;63997;52.112;5.420;2024-02-23T05:07:31;98976.41;;;3.97;100.00
75418;BME280;63997;52.112;5.420;2024-02-23T05:10:00;98975.03;;;4.00;100.00
75418;BME280;63997;52.112;5.420;2024-02-23T05:12:28;98980.41;;;4.03;100.00
75418;BME280;63997;52.112;5.420;2024-02-23T05:14:56;98974.84;;;4.05;100.00
75418;BME280;63997;52.112;5.420;2024-02-23T05:17:23;98971.88;;;4.06;100.00
75418;BME280;63997;52.112;5.420;2024-02-23T05:19:49;98970.44;;;4.09;100.00
75418;BME280;63997;52.112;5.420;2024-02-23T05:22:16;98963.03;;;4.11;100.00
75418;BME280;63997;52.112;5.420;2024-02-23T05:24:42;98965.31;;;4.12;100.00
75418;BME280;63997;52.112;5.420;2024-02-23T05:27:10;98965.75;;;4.14;100.00
75418;BME280;63997;52.112;5.420;2024-02-23T05:29:37;98963.59;;;4.16;100.00
75418;BME280;63997;52.112;5.420;2024-02-23T05:32:04;98971.16;;;4.18;100.00
75418;BME280;63997;52.112;5.420;2024-02-23T05:34:31;98974.22;;;4.20;100.00
75418;BME280;63997;52.112;5.420;2024-02-23T05:36:59;98972.06;;;4.22;100.00
75418;BME280;63997;52.112;5.420;2024-02-23T05:39:25;98973.28;;;4.24;100.00
75418;BME280;63997;52.112;5.420;2024-02-23T05:41:52;98971.09;;;4.27;100.00
75418;BME280;63997;52.112;5.420;2024-02-23T05:44:18;98968.16;;;4.28;100.00
75418;BME280;63997;52.112;5.420;2024-02-23T05:46:49;98964.41;;;4.29;100.00
75418;BME280;63997;52.112;5.420;2024-02-23T05:49:18;98970.78;;;4.28;100.00
75418;BME280;63997;52.112;5.420;2024-02-23T05:51:45;98965.84;;;4.27;100.00
75418;BME280;63997;52.112;5.420;2024-02-23T05:54:12;98971.88;;;4.27;100.00
75418;BME280;63997;52.112;5.420;2024-02-23T05:56:44;98964.41;;;4.29;100.00
75418;BME280;63997;52.112;5.420;2024-02-23T05:59:12;98971.22;;;4.30;100.00
75418;BME280;63997;52.112;5.420;2024-02-23T06:01:38;98965.19;;;4.30;100.00
75418;BME280;63997;52.112;5.420;2024-02-23T06:04:05;98961.59;;;4.34;100.00
75418;BME280;63997;52.112;5.420;2024-02-23T06:06:32;98963.56;;;4.37;100.00
75418;BME280;63997;52.112;5.420;2024-02-23T06:08:58;98973.78;;;4.39;100.00
75418;BME280;63997;52.112;5.420;2024-02-23T06:11:26;98971.59;;;4.41;100.00
75418;BME280;63997;52.112;5.420;2024-02-23T06:13:53;98974.66;;;4.43;100.00
75418;BME280;63997;52.112;5.420;2024-02-23T06:16:19;98969.09;;;4.44;100.00
75418;BME280;63997;52.112;5.420;2024-02-23T06:18:46;98968.00;;;4.45;100.00
75418;BME280;63997;52.112;5.420;2024-02-23T06:21:13;98970.28;;;4.47;100.00
75418;BME280;63997;52.112;5.420;2024-02-23T06:23:41;98971.06;;;4.47;100.00
75418;BME280;63997;52.112;5.420;2024-02-23T06:26:07;98971.06;;;4.47;100.00
75418;BME280;63997;52.112;5.420;2024-02-23T06:28:34;98979.09;;;4.51;100.00
75418;BME280;63997;52.112;5.420;2024-02-23T06:31:01;98979.97;;;4.55;100.00
75418;BME280;63997;52.112;5.420;2024-02-23T06:33:27;98980.41;;;4.57;100.00
75418;BME280;63997;52.112;5.420;2024-02-23T06:35:55;98991.06;;;4.61;100.00
75418;BME280;63997;52.112;5.420;2024-02-23T06:38:22;98990.41;;;4.64;100.00
75418;BME280;63997;52.112;5.420;2024-02-23T06:40:49;98987.44;;;4.65;100.00
75418;BME280;63997;52.112;5.420;2024-02-23T06:43:18;98986.03;;;4.68;100.00
75418;BME280;63997;52.112;5.420;2024-02-23T06:45:49;98989.44;;;4.68;100.00
75418;BME280;63997;52.112;5.420;2024-02-23T06:48:18;98991.44;;;4.71;100.00
75418;BME280;63997;52.112;5.420;2024-02-23T06:50:45;98985.84;;;4.73;100.00
75418;BME280;63997;52.112;5.420;2024-02-23T06:53:12;98983.31;;;4.76;100.00
75418;BME280;63997;52.112;5.420;2024-02-23T06:55:38;98985.66;;;4.78;100.00
75418;BME280;63997;52.112;5.420;2024-02-23T06:58:05;98986.41;;;4.78;100.00
75418;BME280;63997;52.112;5.420;2024-02-23T07:00:33;98990.25;;;4.81;100.00
75418;BME280;63997;52.112;5.420;2024-02-23T07:03:00;98983.88;;;4.82;100.00
75418;BME280;63997;52.112;5.420;2024-02-23T07:05:29;98981.72;;;4.84;100.00
75418;BME280;63997;52.112;5.420;2024-02-23T07:07:57;98996.41;;;4.85;100.00
75418;BME280;63997;52.112;5.420;2024-02-23T07:10:23;98986.31;;;4.87;100.00
75418;BME280;63997;52.112;5.420;2024-02-23T07:12:52;98984.44;;;4.88;100.00
75418;BME280;63997;52.112;5.420;2024-02-23T07:15:20;98991.25;;;4.89;100.00
75418;BME280;63997;52.112;5.420;2024-02-23T07:17:47;98985.66;;;4.90;100.00
75418;BME280;63997;52.112;5.420;2024-02-23T07:20:13;98986.09;;;4.92;100.00
75418;BME280;63997;52.112;5.420;2024-02-23T07:22:44;98989.19;;;4.94;100.00
75418;BME280;63997;52.112;5.420;2024-02-23T07:25:18;98991.94;;;4.98;100.00
75418;BME280;63997;52.112;5.420;2024-02-23T07:27:46;98983.72;;;4.99;100.00
75418;BME280;63997;52.112;5.420;2024-02-23T07:30:15;98987.22;;;5.03;100.00
75418;BME280;63997;52.112;5.420;2024-02-23T07:32:43;98982.41;;;5.06;100.00
75418;BME280;63997;52.112;5.420;2024-02-23T07:35:12;98982.84;;;5.08;100.00
75418;BME280;63997;52.112;5.420;2024-02-23T07:37:38;98984.72;;;5.07;100.00
75418;BME280;63997;52.112;5.420;2024-02-23T07:40:06;98982.84;;;5.08;100.00
75418;BME280;63997;52.112;5.420;2024-02-23T07:42:34;98976.13;;;5.10;100.00
75418;BME280;63997;52.112;5.420;2024-02-23T07:45:04;98976.25;;;5.14;100.00
75418;BME280;63997;52.112;5.420;2024-02-23T07:47:31;98967.38;;;5.18;100.00
75418;BME280;63997;52.112;5.420;2024-02-23T07:49:58;98968.34;;;5.26;100.00
75418;BME280;63997;52.112;5.420;2024-02-23T07:52:25;98971.66;;;5.35;100.00
75418;BME280;63997;52.112;5.420;2024-02-23T07:54:54;98960.91;;;5.40;100.00
75418;BME280;63997;52.112;5.420;2024-02-23T07:57:21;98965.06;;;5.41;100.00
75418;BME280;63997;52.112;5.420;2024-02-23T07:59:48;98959.03;;;5.41;100.00
75418;BME280;63997;52.112;5.420;2024-02-23T08:02:15;98963.53;;;5.40;100.00
75418;BME280;63997;52.112;5.420;2024-02-23T08:04:41;98954.09;;;5.39;100.00
75418;BME280;63997;52.112;5.420;2024-02-23T08:07:09;98955.16;;;5.38;100.00
75418;BME280;63997;52.112;5.420;2024-02-23T08:09:35;98955.16;;;5.38;100.00
75418;BME280;63997;52.112;5.420;2024-02-23T08:12:02;98955.16;;;5.38;100.00
75418;BME280;63997;52.112;5.420;2024-02-23T08:14:29;98946.19;;;5.39;100.00
75418;BME280;63997;52.112;5.420;2024-02-23T08:16:55;98944.75;;;5.42;100.00
75418;BME280;63997;52.112;5.420;2024-02-23T08:19:22;98944.84;;;5.45;100.00
75418;BME280;63997;52.112;5.420;2024-02-23T08:21:49;98944.19;;;5.48;100.00
75418;BME280;63997;52.112;5.420;2024-02-23T08:24:15;98937.81;;;5.49;100.00
75418;BME280;63997;52.112;5.420;2024-02-23T08:26:42;98945.72;;;5.49;100.00
75418;BME280;63997;52.112;5.420;2024-02-23T08:29:09;98949.13;;;5.50;100.00
75418;BME280;63997;52.112;5.420;2024-02-23T08:31:35;98940.00;;;5.47;100.00
75418;BME280;63997;52.112;5.420;2024-02-23T08:34:07;98948.69;;;5.48;100.00
75418;BME280;63997;52.112;5.420;2024-02-23T08:36:34;98947.94;;;5.47;100.00
75418;BME280;63997;52.112;5.420;2024-02-23T08:39:00;98935.84;;;5.46;100.00
75418;BME280;63997;52.112;5.420;2024-02-23T08:41:27;98937.72;;;5.46;100.00
75418;BME280;63997;52.112;5.420;2024-02-23T08:43:54;98939.25;;;5.47;100.00
75418;BME280;63997;52.112;5.420;2024-02-23T08:46:29;98926.84;;;5.47;100.00
75418;BME280;63997;52.112;5.420;2024-02-23T08:48:56;98926.06;;;5.47;100.00
75418;BME280;63997;52.112;5.420;2024-02-23T08:51:23;98917.81;;;5.48;100.00
75418;BME280;63997;52.112;5.420;2024-02-23T08:53:51;98920.03;;;5.46;100.00
75418;BME280;63997;52.112;5.420;2024-02-23T08:56:19;98930.56;;;5.46;100.00
75418;BME280;63997;52.112;5.420;2024-02-23T08:58:46;98929.03;;;5.45;100.00
75418;BME280;63997;52.112;5.420;2024-02-23T09:01:13;98934.31;;;5.45;100.00
75418;BME280;63997;52.112;5.420;2024-02-23T09:03:40;98933.56;;;5.45;100.00
75418;BME280;63997;52.112;5.420;2024-02-23T09:06:07;98937.38;;;5.47;100.00
75418;BME280;63997;52.112;5.420;2024-02-23T09:08:33;98927.59;;;5.48;100.00
75418;BME280;63997;52.112;5.420;2024-02-23T09:11:00;98940.13;;;5.51;100.00
75418;BME280;63997;52.112;5.420;2024-02-23T09:13:27;98943.97;;;5.53;100.00
75418;BME280;63997;52.112;5.420;2024-02-23T09:15:56;98953.41;;;5.54;100.00
75418;BME280;63997;52.112;5.420;2024-02-23T09:18:23;98945.50;;;5.54;100.00
75418;BME280;63997;52.112;5.420;2024-02-23T09:20:50;98950.75;;;5.54;100.00
75418;BME280;63997;52.112;5.420;2024-02-23T09:23:16;98948.91;;;5.55;100.00
75418;BME280;63997;52.112;5.420;2024-02-23T09:25:46;98959.44;;;5.55;100.00
75418;BME280;63997;52.112;5.420;2024-02-23T09:28:12;98947.38;;;5.54;100.00
75418;BME280;63997;52.112;5.420;2024-02-23T09:30:39;98949.00;;;5.58;100.00
75418;BME280;63997;52.112;5.420;2024-02-23T09:33:05;98950.66;;;5.63;100.00
75418;BME280;63997;52.112;5.420;2024-02-23T09:35:33;98950.31;;;5.65;100.00
75418;BME280;63997;52.112;5.420;2024-02-23T09:38:00;98941.31;;;5.66;100.00
75418;BME280;63997;52.112;5.420;2024-02-23T09:40:27;98955.25;;;5.66;100.00
75418;BME280;63997;52.112;5.420;2024-02-23T09:42:57;98956.03;;;5.67;100.00
75418;BME280;63997;52.112;5.420;2024-02-23T09:45:25;98963.94;;;5.67;100.00
75418;BME280;63997;52.112;5.420;2024-02-23T09:47:57;98965.50;;;5.68;100.00
75418;BME280;63997;52.112;5.420;2024-02-23T09:50:24;98972.28;;;5.69;100.00
75418;BME280;63997;52.112;5.420;2024-02-23T09:52:51;98975.69;;;5.69;100.00
75418;BME280;63997;52.112;5.420;2024-02-23T09:55:18;98980.53;;;5.67;100.00
75418;BME280;63997;52.112;5.420;2024-02-23T09:57:48;98981.97;;;5.65;100.00
75418;BME280;63997;52.112;5.420;2024-02-23T10:00:18;98993.63;;;5.64;100.00
75418;BME280;63997;52.112;5.420;2024-02-23T10:02:44;98983.50;;;5.66;100.00
75418;BME280;63997;52.112;5.420;2024-02-23T10:05:12;98980.41;;;5.76;100.00
75418;BME280;63997;52.112;5.420;2024-02-23T10:07:40;98982.59;;;5.86;100.00
75418;BME280;63997;52.112;5.420;2024-02-23T10:10:08;98978.09;;;5.99;100.00
75418;BME280;63997;52.112;5.420;2024-02-23T10:12:35;98978.63;;;6.04;100.00
75418;BME280;63997;52.112;5.420;2024-02-23T10:15:03;98987.41;;;6.08;100.00
75418;BME280;63997;52.112;5.420;2024-02-23T10:17:31;98987.75;;;6.07;100.00
75418;BME280;63997;52.112;5.420;2024-02-23T10:20:02;98987.75;;;6.07;100.00
75418;BME280;63997;52.112;5.420;2024-02-23T10:22:31;98985.53;;;6.09;100.00
75418;BME280;63997;52.112;5.420;2024-02-23T10:24:59;98995.97;;;6.05;100.00
75418;BME280;63997;52.112;5.420;2024-02-23T10:27:26;98996.75;;;6.06;100.00
75418;BME280;63997;52.112;5.420;2024-02-23T10:29:52;98992.69;;;6.08;100.00
75418;BME280;63997;52.112;5.420;2024-02-23T10:32:20;98994.91;;;6.06;100.00
75418;BME280;63997;52.112;5.420;2024-02-23T10:34:52;98994.09;;;6.06;100.00
75418;BME280;63997;52.112;5.420;2024-02-23T10:37:20;99002.72;;;6.03;100.00
75418;BME280;63997;52.112;5.420;2024-02-23T10:39:50;99003.91;;;6.05;100.00
75418;BME280;63997;52.112;5.420;2024-02-23T10:42:21;99007.66;;;6.04;100.00
75418;BME280;63997;52.112;5.420;2024-02-23T10:44:51;99005.34;;;6.03;100.00
75418;BME280;63997;52.112;5.420;2024-02-23T10:47:19;99017.31;;;6.00;100.00
75418;BME280;63997;52.112;5.420;2024-02-23T10:49:48;99029.44;;;6.01;100.00
75418;BME280;63997;52.112;5.420;2024-02-23T10:52:15;99024.16;;;6.01;100.00
75418;BME280;63997;52.112;5.420;2024-02-23T10:54:45;99028.00;;;6.04;100.00
75418;BME280;63997;52.112;5.420;2024-02-23T10:57:13;99027.88;;;6.13;100.00
75418;BME280;63997;52.112;5.420;2024-02-23T10:59:46;99013.34;;;6.19;100.00
75418;BME280;63997;52.112;5.420;2024-02-23T11:02:19;99039.06;;;6.22;100.00
75418;BME280;63997;52.112;5.420;2024-02-23T11:04:48;99024.09;;;6.26;100.00
75418;BME280;63997;52.112;5.420;2024-02-23T11:07:19;99029.88;;;6.44;100.00
75418;BME280;63997;52.112;5.420;2024-02-23T11:10:14;99028.53;;;6.50;100.00
75418;BME280;63997;52.112;5.420;2024-02-23T11:12:41;99028.63;;;6.53;100.00
75418;BME280;63997;52.112;5.420;2024-02-23T11:15:09;99029.00;;;6.68;100.00
75418;BME280;63997;52.112;5.420;2024-02-23T11:17:37;99021.53;;;6.70;100.00
75418;BME280;63997;52.112;5.420;2024-02-23T11:20:05;99021.94;;;6.72;100.00
75418;BME280;63997;52.112;5.420;2024-02-23T11:22:34;99034.66;;;6.82;100.00
75418;BME280;63997;52.112;5.420;2024-02-23T11:25:06;99038.34;;;6.93;100.00
75418;BME280;63997;52.112;5.420;2024-02-23T11:27:38;99029.84;;;7.00;100.00
75418;BME280;63997;52.112;5.420;2024-02-23T11:30:10;99026.53;;;7.03;100.00
75418;BME280;63997;52.112;5.420;2024-02-23T11:32:39;99039.16;;;7.09;100.00
75418;BME280;63997;52.112;5.420;2024-02-23T11:35:09;99021.56;;;7.17;100.00
75418;BME280;63997;52.112;5.420;2024-02-23T11:37:52;99021.25;;;7.19;100.00
75418;BME280;63997;52.112;5.420;2024-02-23T11:40:26;99019.91;;;7.25;100.00
75418;BME280;63997;52.112;5.420;2024-02-23T11:42:54;99022.28;;;7.30;100.00
75418;BME280;63997;52.112;5.420;2024-02-23T11:45:21;99029.88;;;7.31;99.91
75418;BME280;63997;52.112;5.420;2024-02-23T11:47:48;99031.41;;;7.32;99.55
75418;BME280;63997;52.112;5.420;2024-02-23T11:50:15;99036.53;;;7.41;99.13
75418;BME280;63997;52.112;5.420;2024-02-23T11:52:42;99038.63;;;7.51;99.61
75418;BME280;63997;52.112;5.420;2024-02-23T11:55:09;99044.53;;;7.60;98.81
75418;BME280;63997;52.112;5.420;2024-02-23T11:57:36;99039.75;;;7.66;98.97
75418;BME280;63997;52.112;5.420;2024-02-23T12:00:13;99041.78;;;7.57;98.02
75418;BME280;63997;52.112;5.420;2024-02-23T12:02:40;99049.22;;;7.51;98.17
75418;BME280;63997;52.112;5.420;2024-02-23T12:05:07;99049.22;;;7.51;98.24
75418;BME280;63997;52.112;5.420;2024-02-23T12:07:35;99056.47;;;7.54;97.87
75418;BME280;63997;52.112;5.420;2024-02-23T12:10:02;99046.81;;;7.46;97.76
75418;BME280;63997;52.112;5.420;2024-02-23T12:12:30;99047.53;;;7.43;97.29
75418;BME280;63997;52.112;5.420;2024-02-23T12:14:58;99043.25;;;7.38;97.18
75418;BME280;63997;52.112;5.420;2024-02-23T12:17:25;99053.47;;;7.40;97.39
75418;BME280;63997;52.112;5.420;2024-02-23T12:20:00;99053.94;;;7.42;97.30
75418;BME280;63997;52.112;5.420;2024-02-23T12:22:27;99049.91;;;7.48;97.75
75418;BME280;63997;52.112;5.420;2024-02-23T12:24:57;99047.78;;;7.54;97.88
75418;BME280;63997;52.112;5.420;2024-02-23T12:27:24;99040.00;;;7.61;97.34
75418;BME280;63997;52.112;5.420;2024-02-23T12:29:54;99050.69;;;7.64;96.72
75418;BME280;63997;52.112;5.420;2024-02-23T12:32:21;99038.63;;;7.67;96.57
75418;BME280;63997;52.112;5.420;2024-02-23T12:34:48;99060.50;;;7.64;96.19
75418;BME280;63997;52.112;5.420;2024-02-23T12:37:16;99052.72;;;7.71;96.51
75418;BME280;63997;52.112;5.420;2024-02-23T12:39:46;99062.59;;;7.74;96.37
75418;BME280;63997;52.112;5.420;2024-02-23T12:42:13;99062.69;;;7.78;95.63
75418;BME280;63997;52.112;5.420;2024-02-23T12:44:40;99058.25;;;7.82;96.12
75418;BME280;63997;52.112;5.420;2024-02-23T12:47:07;99061.47;;;7.91;95.76
75418;BME280;63997;52.112;5.420;2024-02-23T12:49:33;99067.75;;;8.02;95.91
75418;BME280;63997;52.112;5.420;2024-02-23T12:52:00;99053.94;;;8.09;95.16
75418;BME280;63997;52.112;5.420;2024-02-23T12:54:27;99071.00;;;8.11;95.32
75418;BME280;63997;52.112;5.420;2024-02-23T12:56:54;99056.00;;;8.19;95.24
75418;BME280;63997;52.112;5.420;2024-02-23T12:59:20;99067.59;;;8.11;93.50
75418;BME280;63997;52.112;5.420;2024-02-23T13:01:46;99075.25;;;8.16;93.46
75418;BME280;63997;52.112;5.420;2024-02-23T13:04:17;99074.50;;;8.15;92.18